createdAt,value
2019-06-27T00:00:29.285Z,72.89
2019-06-27T00:05:33.513Z,72.79
2019-06-27T00:10:37.449Z,72.60
2019-06-27T00:15:41.401Z,73.26
2019-06-27T00:20:45.445Z,73.28
2019-06-27T00:25:49.547Z,72.96
2019-06-27T00:30:53.531Z,73.43
2019-06-27T00:35:57.524Z,73.43
2019-06-27T00:41:01.608Z,73.42
2019-06-27T00:46:05.795Z,73.56
2019-06-27T00:51:10.092Z,73.67
2019-06-27T00:56:14.044Z,73.49
2019-06-27T01:01:18.009Z,73.74
2019-06-27T01:06:22.030Z,74.57
2019-06-27T01:11:26.096Z,74.20
2019-06-27T01:16:30.060Z,74.51
2019-06-27T01:21:34.081Z,73.97
2019-06-27T01:26:38.100Z,73.97
2019-06-27T01:31:42.157Z,74.23
2019-06-27T01:36:46.132Z,74.86
2019-06-27T01:41:50.244Z,74.50
2019-06-27T01:46:54.184Z,74.56
2019-06-27T01:51:58.135Z,74.32
2019-06-27T01:57:02.209Z,75.03
2019-06-27T02:02:06.530Z,74.70
2019-06-27T02:07:10.633Z,74.79
2019-06-27T02:12:14.677Z,75.37
2019-06-27T02:17:18.685Z,75.50
2019-06-27T02:22:22.902Z,74.99
2019-06-27T02:27:26.845Z,75.17
2019-06-27T02:32:30.863Z,74.80
2019-06-27T02:37:34.806Z,75.19
2019-06-27T02:42:38.907Z,75.19
2019-06-27T02:47:42.854Z,75.26
2019-06-27T02:52:46.852Z,75.09
2019-06-27T02:57:51.653Z,75.70
2019-06-27T03:02:55.724Z,74.66
2019-06-27T03:07:59.679Z,74.66
2019-06-27T03:13:03.702Z,74.95
2019-06-27T03:18:07.741Z,75.19
2019-06-27T03:23:11.676Z,75.19
2019-06-27T03:28:15.683Z,75.03
2019-06-27T03:33:19.742Z,73.82
2019-06-27T03:38:23.828Z,73.40
2019-06-27T03:43:27.890Z,73.55
2019-06-27T03:48:31.830Z,73.55
2019-06-27T03:53:35.931Z,74.47
2019-06-27T03:58:40.070Z,74.95
2019-06-27T04:03:44.023Z,74.95
2019-06-27T04:08:47.964Z,75.05
2019-06-27T04:13:51.916Z,74.95
2019-06-27T04:18:55.859Z,74.81
2019-06-27T04:23:59.810Z,74.81
2019-06-27T04:29:03.816Z,74.74
2019-06-27T04:34:07.767Z,74.91
2019-06-27T04:39:11.736Z,74.91
2019-06-27T04:44:15.685Z,74.44
2019-06-27T04:49:19.635Z,75.29
2019-06-27T04:54:23.613Z,75.29
2019-06-27T04:59:27.627Z,75.26
2019-06-27T05:04:31.642Z,75.63
2019-06-27T05:09:35.592Z,75.92
2019-06-27T05:14:39.615Z,75.64
2019-06-27T05:19:43.575Z,75.41
2019-06-27T05:24:47.517Z,75.56
2019-06-27T05:30:05.000Z,75.56
2019-06-27T05:34:57.380Z,75.89
2019-06-27T05:40:01.343Z,75.47
2019-06-27T05:45:05.653Z,76.41
2019-06-27T05:50:10.477Z,75.91
2019-06-27T05:55:14.478Z,76.17
2019-06-27T06:00:28.140Z,75.72
2019-06-27T06:05:24.251Z,75.88
2019-06-27T06:10:28.183Z,75.88
2019-06-27T06:15:32.500Z,75.84
2019-06-27T06:20:36.437Z,76.35
2019-06-27T06:25:40.417Z,76.35
2019-06-27T06:30:45.338Z,76.09
2019-06-27T06:35:49.497Z,59.89
2019-06-27T06:40:53.515Z,59.34
2019-06-27T06:45:57.623Z,60.72
2019-06-27T06:51:01.554Z,60.72
2019-06-27T06:56:06.050Z,60.48
2019-06-27T07:01:10.050Z,60.58
2019-06-27T07:06:13.998Z,59.68
2019-06-27T07:11:17.944Z,60.97
2019-06-27T07:16:21.888Z,60.21
2019-06-27T07:21:25.834Z,61.42
2019-06-27T07:26:29.774Z,61.29
2019-06-27T07:31:33.717Z,60.12
2019-06-27T07:36:37.734Z,58.38
2019-06-27T07:41:41.696Z,58.61
2019-06-27T07:46:45.661Z,57.65
2019-06-27T07:51:49.690Z,56.92
2019-06-27T07:56:53.626Z,56.92
2019-06-27T08:01:57.584Z,56.36
2019-06-27T08:07:01.544Z,56.31
2019-06-27T08:12:05.633Z,56.31
2019-06-27T08:17:09.578Z,57.43
2019-06-27T08:22:13.531Z,56.64
2019-06-27T08:27:17.546Z,56.18
2019-06-27T08:32:21.851Z,56.18
2019-06-27T08:37:25.823Z,55.92
2019-06-27T08:42:29.754Z,55.92
2019-06-27T08:47:33.709Z,55.33
2019-06-27T08:52:37.724Z,53.88
2019-06-27T08:57:41.714Z,55.43
2019-06-27T09:02:45.698Z,55.57
2019-06-27T09:07:49.724Z,53.36
2019-06-27T09:12:53.676Z,55.02
2019-06-27T09:17:57.610Z,56.81
2019-06-27T09:23:01.551Z,56.46
2019-06-27T09:28:05.485Z,56.46
2019-06-27T09:33:09.449Z,55.63
2019-06-27T09:38:13.402Z,53.05
2019-06-27T09:43:17.396Z,52.35
2019-06-27T09:48:21.344Z,51.23
2019-06-27T09:53:25.306Z,50.06
2019-06-27T09:58:29.382Z,50.06
2019-06-27T10:03:34.063Z,50.99
2019-06-27T10:08:38.008Z,49.70
2019-06-27T10:13:41.934Z,49.70
2019-06-27T10:18:45.862Z,49.70
2019-06-27T10:23:49.878Z,50.33
2019-06-27T10:28:53.890Z,49.62
2019-06-27T10:33:57.906Z,49.24
2019-06-27T10:39:01.919Z,49.24
2019-06-27T10:44:05.961Z,48.61
2019-06-27T10:49:09.909Z,47.09
2019-06-27T10:54:13.922Z,47.09
2019-06-27T10:59:17.902Z,46.51
2019-06-27T11:04:22.009Z,46.53
2019-06-27T11:09:25.992Z,46.56
2019-06-27T11:14:30.080Z,46.36
2019-06-27T11:19:33.987Z,46.64
2019-06-27T11:24:37.980Z,46.64
2019-06-27T11:29:41.914Z,47.13
2019-06-27T11:34:45.864Z,45.44
2019-06-27T11:39:49.893Z,47.07
2019-06-27T11:44:53.925Z,45.74
2019-06-27T11:49:57.872Z,45.74
2019-06-27T11:55:01.887Z,46.38
2019-06-27T12:00:07.041Z,46.38
2019-06-27T12:05:11.228Z,45.93
2019-06-27T12:10:17.515Z,44.49
2019-06-27T12:15:21.517Z,44.97
2019-06-27T12:20:25.459Z,44.18
2019-06-27T12:25:29.435Z,44.18
2019-06-27T12:30:33.361Z,42.55
2019-06-27T12:35:37.368Z,42.55
2019-06-27T12:40:42.175Z,42.75
2019-06-27T12:45:46.142Z,42.75
2019-06-27T12:50:50.154Z,43.35
2019-06-27T12:55:54.637Z,43.47
2019-06-27T13:00:58.660Z,44.20
2019-06-27T13:06:02.697Z,44.20
2019-06-27T13:11:06.620Z,50.69
2019-06-27T13:16:10.678Z,53.54
2019-06-27T13:21:14.619Z,52.25
2019-06-27T13:26:18.607Z,53.10
2019-06-27T13:31:22.693Z,54.42
2019-06-27T13:36:26.650Z,54.56
2019-06-27T13:41:30.615Z,56.26
2019-06-27T13:46:34.557Z,56.26
2019-06-27T13:51:38.523Z,62.13
2019-06-27T13:56:42.473Z,62.13
2019-06-27T14:01:46.428Z,60.94
2019-06-27T14:06:50.371Z,60.94
2019-06-27T14:11:54.397Z,60.54
2019-06-27T14:16:58.332Z,60.14
2019-06-27T14:22:02.446Z,60.29
2019-06-27T14:27:06.406Z,60.16
2019-06-27T14:32:10.401Z,59.65
2019-06-27T14:37:14.375Z,59.30
2019-06-27T14:42:18.555Z,59.56
2019-06-27T14:47:22.532Z,59.20
2019-06-27T14:52:26.502Z,59.20
2019-06-27T14:57:30.469Z,59.58
2019-06-27T15:02:34.520Z,59.37
2019-06-27T15:07:38.557Z,59.37
2019-06-27T15:12:55.756Z,59.64
2019-06-27T15:17:48.195Z,59.17
2019-06-27T15:22:52.160Z,59.69
2019-06-27T15:27:56.214Z,59.86
2019-06-27T15:33:00.185Z,60.25
2019-06-27T15:38:04.148Z,60.19
2019-06-27T15:43:08.117Z,60.19
2019-06-27T15:48:12.204Z,60.30
2019-06-27T15:53:16.165Z,60.30
2019-06-27T15:58:20.195Z,60.24
2019-06-27T16:03:24.136Z,60.26
2019-06-27T16:08:28.120Z,60.86
2019-06-27T16:13:32.218Z,60.86
2019-06-27T16:18:36.196Z,62.32
2019-06-27T16:23:40.224Z,62.06
2019-06-27T16:28:44.169Z,63.75
2019-06-27T16:33:48.113Z,63.86
2019-06-27T16:38:52.136Z,64.05
2019-06-27T16:43:56.116Z,64.81
2019-06-27T16:49:00.059Z,64.61
2019-06-27T16:54:04.099Z,65.01
2019-06-27T16:59:08.113Z,65.08
2019-06-27T17:04:12.066Z,64.27
2019-06-27T17:09:16.220Z,64.62
2019-06-27T17:14:20.406Z,64.63
2019-06-27T17:19:24.352Z,64.19
2019-06-27T17:24:28.286Z,64.30
2019-06-27T17:29:32.207Z,64.58
2019-06-27T17:34:36.169Z,64.35
2019-06-27T17:39:40.105Z,64.35
2019-06-27T17:44:44.048Z,63.52
2019-06-27T17:49:49.193Z,64.00
2019-06-27T17:54:53.306Z,64.00
2019-06-27T17:59:57.248Z,63.50
2019-06-27T18:05:01.200Z,63.21
2019-06-27T18:10:05.964Z,63.27
2019-06-27T18:15:10.846Z,62.33
2019-06-27T18:20:15.205Z,61.62
2019-06-27T18:25:19.193Z,61.62
2019-06-27T18:30:23.211Z,61.54
2019-06-27T18:35:27.213Z,60.44
2019-06-27T18:40:31.147Z,61.03
2019-06-27T18:45:35.094Z,61.03
2019-06-27T18:50:39.044Z,57.83
2019-06-27T18:55:43.036Z,57.83
2019-06-27T19:00:47.002Z,58.05
2019-06-27T19:05:50.966Z,56.48
2019-06-27T19:10:54.939Z,56.61
2019-06-27T19:15:58.883Z,56.61
2019-06-27T19:21:05.271Z,56.00
2019-06-27T19:26:09.227Z,56.27
2019-06-27T19:31:13.179Z,57.21
2019-06-27T19:36:17.214Z,56.31
2019-06-27T19:41:21.233Z,56.04
2019-06-27T19:46:25.248Z,55.54
2019-06-27T19:51:29.264Z,55.74
2019-06-27T19:56:33.253Z,56.40
2019-06-27T20:01:37.336Z,51.74
2019-06-27T20:06:41.375Z,51.74
2019-06-27T20:11:46.091Z,51.71
2019-06-27T20:16:50.055Z,52.47
2019-06-27T20:21:54.013Z,52.37
2019-06-27T20:26:58.405Z,53.49
2019-06-27T20:32:02.348Z,52.43
2019-06-27T20:37:06.288Z,52.84
2019-06-27T20:42:10.243Z,52.84
2019-06-27T20:47:14.187Z,53.83
2019-06-27T20:52:18.117Z,53.83
2019-06-27T20:57:22.190Z,54.47
2019-06-27T21:02:26.493Z,54.47
2019-06-27T21:07:30.808Z,54.71
2019-06-27T21:12:35.488Z,54.68
2019-06-27T21:17:39.503Z,54.61
2019-06-27T21:22:45.998Z,55.00
2019-06-27T21:27:49.085Z,55.13
2019-06-27T21:32:53.121Z,55.11
2019-06-27T21:37:57.766Z,54.69
2019-06-27T21:43:01.702Z,54.07
2019-06-27T21:48:05.676Z,53.94
2019-06-27T21:53:09.618Z,54.21
2019-06-27T21:58:13.552Z,54.98
2019-06-27T22:03:17.643Z,54.83
2019-06-27T22:08:21.661Z,54.83
2019-06-27T22:13:25.754Z,54.64
2019-06-27T22:18:29.667Z,55.01
2019-06-27T22:23:33.644Z,54.73
2019-06-27T22:28:37.564Z,54.73
2019-06-27T22:33:41.559Z,54.95
2019-06-27T22:39:03.221Z,54.92
2019-06-27T22:44:24.757Z,54.91
2019-06-27T22:49:27.854Z,54.91
2019-06-27T22:54:32.881Z,54.99
2019-06-27T22:59:36.814Z,55.29
2019-06-27T23:04:40.819Z,55.29
2019-06-27T23:09:56.376Z,54.89
2019-06-27T23:14:50.655Z,54.89
2019-06-27T23:19:54.765Z,55.01
2019-06-27T23:24:58.701Z,55.00
2019-06-27T23:30:02.654Z,54.69
2019-06-27T23:35:07.607Z,54.69
2019-06-27T23:40:14.640Z,54.90
2019-06-27T23:45:18.006Z,55.25
2019-06-27T23:50:21.932Z,54.78
2019-06-27T23:55:25.855Z,54.50
